createdAt,value
2023-04-16T00:00:56.996Z,101072.06
2023-04-16T00:03:25.096Z,101077.94
2023-04-16T00:05:55.636Z,101073.28
2023-04-16T00:08:24.571Z,101071.88
2023-04-16T00:10:52.240Z,101071.69
2023-04-16T00:13:20.011Z,101070.84
2023-04-16T00:15:49.037Z,101063.38
2023-04-16T00:18:16.659Z,101069.63
2023-04-16T00:20:44.286Z,101069.28
2023-04-16T00:23:11.962Z,101070.94
2023-04-16T00:25:39.590Z,101078.03
2023-04-16T00:28:07.359Z,101078.03
2023-04-16T00:30:35.883Z,101075.91
2023-04-16T00:33:05.598Z,101081.66
2023-04-16T00:35:46.509Z,101079.88
2023-04-16T00:38:14.827Z,101081.75
2023-04-16T00:40:42.480Z,101086.31
2023-04-16T00:43:10.581Z,101083.69
2023-04-16T00:45:38.336Z,101086.97
2023-04-16T00:48:07.500Z,101084.53
2023-04-16T00:50:38.394Z,101087.31
2023-04-16T00:53:06.280Z,101079.88
2023-04-16T00:55:33.947Z,101083.41
2023-04-16T00:58:01.570Z,101089.47
2023-04-16T01:00:29.336Z,101092.91
2023-04-16T01:02:57.594Z,101091.69
2023-04-16T01:05:26.958Z,101100.19
2023-04-16T01:07:54.599Z,101101.31
2023-04-16T01:10:26.080Z,101104.50
2023-04-16T01:12:53.761Z,101102.63
2023-04-16T01:15:21.429Z,101111.66
2023-04-16T01:17:49.399Z,101106.00
2023-04-16T01:20:25.926Z,101112.88
2023-04-16T01:22:57.249Z,101107.66
2023-04-16T01:25:27.250Z,101113.44
2023-04-16T01:27:57.291Z,101121.06
2023-04-16T01:30:25.030Z,101125.34
2023-04-16T01:32:52.784Z,101123.03
2023-04-16T01:35:20.490Z,101128.44
2023-04-16T01:37:48.149Z,101127.75
2023-04-16T01:40:17.330Z,101129.97
2023-04-16T01:42:45.109Z,101130.53
2023-04-16T01:45:15.863Z,101128.47
2023-04-16T01:47:43.811Z,101134.97
2023-04-16T01:50:12.714Z,101133.00
2023-04-16T01:52:41.471Z,101134.31
2023-04-16T01:55:10.075Z,101134.63
2023-04-16T01:57:38.965Z,101139.66
2023-04-16T02:00:08.393Z,101145.38
2023-04-16T02:02:36.863Z,101150.19
2023-04-16T02:05:05.344Z,101144.22
2023-04-16T02:07:33.085Z,101151.84
2023-04-16T02:10:00.773Z,101147.00
2023-04-16T02:12:28.576Z,101136.06
2023-04-16T02:14:58.120Z,101141.66
2023-04-16T02:17:31.556Z,101142.72
2023-04-16T02:19:59.955Z,101142.00
2023-04-16T02:22:27.619Z,101146.38
2023-04-16T02:24:55.383Z,101144.25
2023-04-16T02:27:23.077Z,101151.22
2023-04-16T02:29:50.911Z,101156.31
2023-04-16T02:32:20.853Z,101154.28
2023-04-16T02:34:48.522Z,101157.13
2023-04-16T02:37:16.272Z,101153.56
2023-04-16T02:39:43.949Z,101148.34
2023-04-16T02:42:11.612Z,101155.91
2023-04-16T02:44:39.223Z,101160.66
2023-04-16T02:47:06.922Z,101165.78
2023-04-16T02:49:36.629Z,101160.38
2023-04-16T02:52:04.764Z,101170.50
2023-04-16T02:54:32.407Z,101171.81
2023-04-16T02:57:00.020Z,101172.47
2023-04-16T02:59:27.670Z,101174.66
2023-04-16T03:01:57.311Z,101172.25
2023-04-16T03:04:25.802Z,101180.38
2023-04-16T03:06:54.860Z,101178.19
2023-04-16T03:09:22.505Z,101184.63
2023-04-16T03:11:50.214Z,101181.63
2023-04-16T03:14:17.941Z,101189.09
2023-04-16T03:16:45.610Z,101184.13
2023-04-16T03:19:13.321Z,101179.38
2023-04-16T03:21:40.991Z,101190.53
2023-04-16T03:24:10.006Z,101189.00
2023-04-16T03:26:37.693Z,101188.47
2023-04-16T03:29:05.396Z,101192.00
2023-04-16T03:31:33.219Z,101199.28
2023-04-16T03:34:01.084Z,101195.25
2023-04-16T03:36:28.695Z,101194.38
2023-04-16T03:38:56.371Z,101190.16
2023-04-16T03:41:25.415Z,101195.44
2023-04-16T03:43:53.099Z,101190.53
2023-04-16T03:46:20.914Z,101191.47
2023-04-16T03:48:48.639Z,101188.94
2023-04-16T03:51:16.352Z,101198.41
2023-04-16T03:53:44.013Z,101186.75
2023-04-16T03:56:11.660Z,101194.88
2023-04-16T03:58:40.755Z,101201.28
2023-04-16T04:01:08.462Z,101191.69
2023-04-16T04:03:36.341Z,101190.31
2023-04-16T04:06:07.863Z,101190.31
2023-04-16T04:08:35.649Z,101187.63
2023-04-16T04:11:03.257Z,101195.03
2023-04-16T04:13:31.001Z,101193.84
2023-04-16T04:16:00.277Z,101199.59
2023-04-16T04:18:28.072Z,101200.78
2023-04-16T04:20:55.788Z,101205.50
2023-04-16T04:23:23.554Z,101209.56
2023-04-16T04:25:51.389Z,101208.41
2023-04-16T04:28:19.118Z,101215.19
2023-04-16T04:30:46.792Z,101214.16
2023-04-16T04:33:15.850Z,101213.16
2023-04-16T04:35:43.464Z,101215.38
2023-04-16T04:38:11.221Z,101217.88
2023-04-16T04:40:39.222Z,101221.94
2023-04-16T04:43:06.859Z,101217.88
2023-04-16T04:45:34.605Z,101218.88
2023-04-16T04:48:02.358Z,101221.88
2023-04-16T04:50:31.483Z,101222.44
2023-04-16T04:52:59.070Z,101229.00
2023-04-16T04:55:26.866Z,101232.38
2023-04-16T04:57:54.543Z,101237.72
2023-04-16T05:00:22.303Z,101238.06
2023-04-16T05:02:51.083Z,101244.13
2023-04-16T05:05:18.913Z,101244.47
2023-04-16T05:07:47.944Z,101248.84
2023-04-16T05:10:15.714Z,101245.50
2023-04-16T05:12:43.468Z,101250.22
2023-04-16T05:15:11.682Z,101253.94
2023-04-16T05:17:39.302Z,101254.63
2023-04-16T05:20:11.187Z,101258.50
2023-04-16T05:22:38.884Z,101260.69
2023-04-16T05:25:08.777Z,101258.16
2023-04-16T05:27:36.978Z,101258.31
2023-04-16T05:30:04.979Z,101262.72
2023-04-16T05:32:32.693Z,101261.53
2023-04-16T05:35:00.444Z,101270.13
2023-04-16T05:37:28.405Z,101266.78
2023-04-16T05:39:56.061Z,101266.94
2023-04-16T05:42:27.518Z,101266.41
2023-04-16T05:44:55.430Z,101273.16
2023-04-16T05:47:25.443Z,101279.25
2023-04-16T05:49:53.130Z,101285.66
2023-04-16T05:52:20.871Z,101291.59
2023-04-16T05:54:48.798Z,101287.38
2023-04-16T05:57:16.576Z,101280.59
2023-04-16T05:59:45.630Z,101290.25
2023-04-16T06:02:13.790Z,101290.75
2023-04-16T06:04:50.724Z,101294.94
2023-04-16T06:07:18.948Z,101301.50
2023-04-16T06:09:46.693Z,101301.66
2023-04-16T06:12:14.459Z,101297.13
2023-04-16T06:14:42.154Z,101299.31
2023-04-16T06:17:11.228Z,101310.63
2023-04-16T06:19:38.911Z,101310.63
2023-04-16T06:22:08.417Z,101315.88
2023-04-16T06:24:36.594Z,101319.06
2023-04-16T06:27:04.407Z,101315.19
2023-04-16T06:29:40.445Z,101315.34
2023-04-16T06:32:09.791Z,101319.38
2023-04-16T06:34:39.830Z,101328.19
2023-04-16T06:37:10.366Z,101326.31
2023-04-16T06:39:38.382Z,101323.25
2023-04-16T06:42:08.076Z,101331.53
2023-04-16T06:44:36.637Z,101333.59
2023-04-16T06:47:04.645Z,101336.94
2023-04-16T06:49:32.553Z,101336.13
2023-04-16T06:52:03.845Z,101332.41
2023-04-16T06:54:33.414Z,101336.63
2023-04-16T06:57:01.083Z,101339.16
2023-04-16T06:59:28.774Z,101334.56
2023-04-16T07:01:56.505Z,101336.59
2023-04-16T07:04:24.328Z,101333.53
2023-04-16T07:06:52.997Z,101345.53
2023-04-16T07:09:23.035Z,101340.81
2023-04-16T07:11:51.331Z,101347.91
2023-04-16T07:14:19.029Z,101344.69
2023-04-16T07:16:46.827Z,101347.44
2023-04-16T07:19:14.544Z,101345.72
2023-04-16T07:21:43.692Z,101356.16
2023-04-16T07:24:11.770Z,101350.25
2023-04-16T07:26:41.090Z,101357.81
2023-04-16T07:29:11.280Z,101356.63
2023-04-16T07:31:39.744Z,101357.50
2023-04-16T07:34:07.488Z,101355.13
2023-04-16T07:36:35.189Z,101362.53
2023-04-16T07:39:02.873Z,101370.31
2023-04-16T07:41:30.982Z,101368.50
2023-04-16T07:43:59.876Z,101360.84
2023-04-16T07:46:33.160Z,101370.84
2023-04-16T07:49:07.619Z,101378.09
2023-04-16T07:51:37.514Z,101380.81
2023-04-16T07:54:05.350Z,101376.59
2023-04-16T07:56:33.017Z,101384.16
2023-04-16T07:59:14.372Z,101382.47
2023-04-16T08:01:49.402Z,101389.53
2023-04-16T08:04:22.978Z,101392.78
2023-04-16T08:06:51.325Z,101394.94
2023-04-16T08:09:20.149Z,101397.19
2023-04-16T08:11:49.186Z,101392.25
2023-04-16T08:14:18.272Z,101399.34
2023-04-16T08:16:45.955Z,101398.16
2023-04-16T08:19:13.728Z,101411.66
2023-04-16T08:21:41.663Z,101410.13
2023-04-16T08:24:09.269Z,101404.34
2023-04-16T08:26:36.907Z,101402.47
2023-04-16T08:29:04.688Z,101412.75
2023-04-16T08:31:34.083Z,101411.09
2023-04-16T08:34:01.986Z,101406.53
2023-04-16T08:36:29.737Z,101413.28
2023-04-16T08:38:57.344Z,101411.38
2023-04-16T08:41:27.924Z,101421.34
2023-04-16T08:43:57.305Z,101420.00
2023-04-16T08:46:26.520Z,101422.88
2023-04-16T08:48:56.729Z,101428.28
2023-04-16T08:51:24.895Z,101431.91
2023-04-16T08:53:54.749Z,101433.41
2023-04-16T08:56:24.930Z,101434.13
2023-04-16T08:58:56.246Z,101435.78
2023-04-16T09:01:26.625Z,101437.66
2023-04-16T09:03:56.747Z,101435.97
2023-04-16T09:06:24.738Z,101436.44
2023-04-16T09:08:55.025Z,101435.44
2023-04-16T09:11:22.766Z,101435.78
2023-04-16T09:13:50.662Z,101436.81
2023-04-16T09:16:19.540Z,101435.78
2023-04-16T09:18:47.781Z,101439.00
2023-04-16T09:21:17.208Z,101446.59
2023-04-16T09:23:44.944Z,101441.38
2023-04-16T09:26:12.687Z,101442.03
2023-04-16T09:28:41.768Z,101447.25
2023-04-16T09:31:14.867Z,101448.13
2023-04-16T09:33:43.444Z,101455.03
2023-04-16T09:36:11.856Z,101456.59
2023-04-16T09:38:51.783Z,101458.09
2023-04-16T09:41:25.292Z,101454.34
2023-04-16T09:43:57.719Z,101453.16
2023-04-16T09:46:30.821Z,101458.75
2023-04-16T09:49:01.033Z,101456.72
2023-04-16T09:51:37.990Z,101458.41
2023-04-16T09:54:07.488Z,101461.78
2023-04-16T09:56:40.330Z,101463.13
2023-04-16T09:59:17.583Z,101465.16
2023-04-16T10:01:46.712Z,101465.31
2023-04-16T10:04:14.631Z,101469.91
2023-04-16T10:06:44.116Z,101479.03
2023-04-16T10:09:13.457Z,101482.06
2023-04-16T10:11:41.465Z,101477.16
2023-04-16T10:14:09.960Z,101475.09
2023-04-16T10:16:41.046Z,101484.72
2023-04-16T10:19:09.898Z,101476.97
2023-04-16T10:21:37.892Z,101491.84
2023-04-16T10:24:06.277Z,101489.16
2023-04-16T10:26:37.026Z,101496.59
2023-04-16T10:29:07.254Z,101496.28
2023-04-16T10:31:36.874Z,101494.06
2023-04-16T10:34:04.870Z,101499.31
2023-04-16T10:36:36.956Z,101502.34
2023-04-16T10:39:05.531Z,101499.66
2023-04-16T10:41:35.572Z,101508.28
2023-04-16T10:44:09.394Z,101504.38
2023-04-16T10:46:39.515Z,101494.91
2023-04-16T10:49:15.007Z,101505.69
2023-04-16T10:51:43.302Z,101506.72
2023-04-16T10:54:22.150Z,101499.78
2023-04-16T10:56:51.866Z,101496.56
2023-04-16T10:59:20.613Z,101501.63
2023-04-16T11:01:49.862Z,101500.13
2023-04-16T11:04:31.015Z,101507.19
2023-04-16T11:07:06.487Z,101507.53
2023-04-16T11:09:53.236Z,101505.00
2023-04-16T11:12:24.204Z,101507.38
2023-04-16T11:14:54.172Z,101507.00
2023-04-16T11:17:23.289Z,101507.00
2023-04-16T11:19:53.514Z,101502.78
2023-04-16T11:22:21.603Z,101508.84
2023-04-16T11:24:55.706Z,101511.25
2023-04-16T11:27:26.385Z,101517.47
2023-04-16T11:30:01.868Z,101517.47
2023-04-16T11:32:32.524Z,101511.41
2023-04-16T11:35:03.450Z,101514.13
2023-04-16T11:37:34.899Z,101517.84
2023-04-16T11:40:04.815Z,101514.44
2023-04-16T11:42:37.149Z,101525.78
2023-04-16T11:45:06.140Z,101522.38
2023-04-16T11:47:42.989Z,101522.06
2023-04-16T11:50:21.902Z,101525.59
2023-04-16T11:52:50.516Z,101512.75
2023-04-16T11:55:18.536Z,101515.78
2023-04-16T11:57:47.728Z,101522.00
2023-04-16T12:00:16.119Z,101524.19
2023-04-16T12:02:46.040Z,101526.34
2023-04-16T12:05:31.877Z,101529.75
2023-04-16T12:08:01.538Z,101527.22
2023-04-16T12:10:30.061Z,101532.78
2023-04-16T12:13:13.469Z,101521.94
2023-04-16T12:15:48.542Z,101523.78
2023-04-16T12:18:16.761Z,101525.16
2023-04-16T12:20:45.797Z,101518.41
2023-04-16T12:23:24.059Z,101529.69
2023-04-16T12:25:52.059Z,101530.88
2023-04-16T12:28:30.351Z,101523.44
2023-04-16T12:30:58.085Z,101534.09
2023-04-16T12:33:28.194Z,101533.56
2023-04-16T12:35:56.404Z,101526.09
2023-04-16T12:38:25.578Z,101527.97
2023-04-16T12:40:56.666Z,101529.97
2023-04-16T12:43:24.903Z,101532.84
2023-04-16T12:45:53.977Z,101526.34
2023-04-16T12:48:21.870Z,101526.94
2023-04-16T12:50:49.493Z,101528.56
2023-04-16T12:53:17.227Z,101532.91
2023-04-16T12:55:45.340Z,101525.41
2023-04-16T12:58:13.151Z,101518.69
2023-04-16T13:00:41.174Z,101520.28
2023-04-16T13:03:14.271Z,101525.03
2023-04-16T13:05:42.267Z,101517.19
2023-04-16T13:08:09.984Z,101523.22
2023-04-16T13:10:38.050Z,101521.72
2023-04-16T13:13:06.418Z,101511.84
2023-04-16T13:15:34.486Z,101518.22
2023-04-16T13:18:02.307Z,101519.72
2023-04-16T13:20:31.401Z,101519.53
2023-04-16T13:22:59.784Z,101522.53
2023-04-16T13:25:27.702Z,101521.78
2023-04-16T13:27:55.474Z,101516.06
2023-04-16T13:30:25.395Z,101520.25
2023-04-16T13:32:53.141Z,101511.94
2023-04-16T13:35:20.843Z,101517.25
2023-04-16T13:37:49.760Z,101513.53
2023-04-16T13:40:17.732Z,101508.00
2023-04-16T13:42:45.322Z,101507.41
2023-04-16T13:45:12.891Z,101502.19
2023-04-16T13:47:42.390Z,101497.41
2023-04-16T13:50:10.988Z,101501.22
2023-04-16T13:52:40.982Z,101501.78
2023-04-16T13:55:13.661Z,101504.03
2023-04-16T13:57:41.546Z,101497.09
2023-04-16T14:00:12.564Z,101497.44
2023-04-16T14:02:41.138Z,101499.66
2023-04-16T14:05:09.333Z,101504.16
2023-04-16T14:07:40.990Z,101504.75
2023-04-16T14:10:11.269Z,101497.38
2023-04-16T14:12:39.273Z,101500.28
2023-04-16T14:15:09.623Z,101502.91
2023-04-16T14:17:37.942Z,101497.84
2023-04-16T14:20:06.933Z,101508.44
2023-04-16T14:22:34.665Z,101506.22
2023-04-16T14:25:03.392Z,101511.19
2023-04-16T14:27:32.566Z,101514.56
2023-04-16T14:30:00.406Z,101505.56
2023-04-16T14:32:28.671Z,101509.75
2023-04-16T14:34:56.411Z,101512.13
2023-04-16T14:37:24.130Z,101512.28
2023-04-16T14:39:51.908Z,101517.47
2023-04-16T14:42:19.568Z,101520.81
2023-04-16T14:44:48.875Z,101515.19
2023-04-16T14:47:16.499Z,101509.22
2023-04-16T14:49:45.856Z,101512.41
2023-04-16T14:52:16.865Z,101514.25
2023-04-16T14:54:44.548Z,101511.16
2023-04-16T14:57:12.144Z,101514.66
2023-04-16T14:59:39.829Z,101510.44
2023-04-16T15:02:10.351Z,101515.19
2023-04-16T15:04:38.349Z,101518.09
2023-04-16T15:07:06.060Z,101525.03
2023-04-16T15:09:34.833Z,101520.19
2023-04-16T15:12:02.763Z,101521.41
2023-04-16T15:14:30.424Z,101521.56
2023-04-16T15:16:58.109Z,101524.13
2023-04-16T15:19:27.786Z,101519.13
2023-04-16T15:21:55.869Z,101521.03
2023-04-16T15:24:23.623Z,101529.63
2023-04-16T15:26:51.386Z,101530.28
2023-04-16T15:29:18.940Z,101518.31
2023-04-16T15:31:46.611Z,101526.66
2023-04-16T15:34:14.292Z,101529.34
2023-04-16T15:36:43.428Z,101531.06
2023-04-16T15:39:11.682Z,101533.66
2023-04-16T15:41:53.387Z,101537.59
2023-04-16T15:44:27.269Z,101533.19
2023-04-16T15:46:55.202Z,101540.13
2023-04-16T15:49:23.346Z,101545.44
2023-04-16T15:51:52.546Z,101541.53
2023-04-16T15:54:20.282Z,101539.28
2023-04-16T15:56:48.125Z,101542.81
2023-04-16T15:59:15.986Z,101542.91
2023-04-16T16:01:43.640Z,101542.16
2023-04-16T16:04:11.916Z,101537.44
2023-04-16T16:06:39.573Z,101540.81
2023-04-16T16:09:08.981Z,101545.22
2023-04-16T16:11:40.587Z,101538.94
2023-04-16T16:14:08.521Z,101540.94
2023-04-16T16:16:36.441Z,101550.59
2023-04-16T16:19:05.876Z,101550.75
2023-04-16T16:21:34.776Z,101548.22
2023-04-16T16:24:02.509Z,101546.72
2023-04-16T16:26:31.958Z,101546.72
2023-04-16T16:28:59.663Z,101554.88
2023-04-16T16:31:27.392Z,101556.28
2023-04-16T16:33:55.076Z,101552.94
2023-04-16T16:36:22.875Z,101561.44
2023-04-16T16:38:50.489Z,101560.91
2023-04-16T16:41:18.115Z,101560.72
2023-04-16T16:43:47.105Z,101570.72
2023-04-16T16:46:14.923Z,101567.47
2023-04-16T16:48:42.825Z,101567.00
2023-04-16T16:51:11.072Z,101570.44
2023-04-16T16:53:38.650Z,101574.38
2023-04-16T16:56:06.913Z,101573.06
2023-04-16T16:58:34.615Z,101575.09
2023-04-16T17:01:03.712Z,101567.34
2023-04-16T17:03:32.924Z,101574.84
2023-04-16T17:06:01.084Z,101573.16
2023-04-16T17:08:29.192Z,101580.44
2023-04-16T17:10:56.844Z,101573.78
2023-04-16T17:13:25.280Z,101574.28
2023-04-16T17:15:53.170Z,101576.69
2023-04-16T17:18:23.818Z,101586.41
2023-04-16T17:20:51.529Z,101583.59
2023-04-16T17:23:19.190Z,101584.59
2023-04-16T17:25:47.052Z,101596.03
2023-04-16T17:28:14.870Z,101599.75
2023-04-16T17:30:42.553Z,101596.75
2023-04-16T17:33:10.491Z,101605.72
2023-04-16T17:35:40.490Z,101599.66
2023-04-16T17:38:08.350Z,101596.63
2023-04-16T17:40:36.201Z,101605.97
2023-04-16T17:43:03.780Z,101606.47
2023-04-16T17:45:31.642Z,101609.72
2023-04-16T17:47:59.878Z,101612.81
2023-04-16T17:50:27.946Z,101621.47
2023-04-16T17:52:58.097Z,101617.25
2023-04-16T17:55:27.178Z,101627.63
2023-04-16T17:57:56.454Z,101625.44
2023-04-16T18:00:24.172Z,101620.50
2023-04-16T18:02:52.481Z,101627.13
2023-04-16T18:05:21.757Z,101634.59
2023-04-16T18:07:50.485Z,101633.28
2023-04-16T18:10:22.333Z,101627.72
2023-04-16T18:12:50.068Z,101641.97
2023-04-16T18:15:17.968Z,101642.44
2023-04-16T18:17:46.132Z,101646.81
2023-04-16T18:20:16.866Z,101649.41
2023-04-16T18:22:44.500Z,101653.50
2023-04-16T18:25:12.232Z,101656.72
2023-04-16T18:27:41.868Z,101662.22
2023-04-16T18:30:20.101Z,101656.53
2023-04-16T18:33:16.601Z,101668.38
2023-04-16T18:35:41.604Z,101666.72
2023-04-16T18:38:09.557Z,101665.59
2023-04-16T18:40:38.092Z,101671.47
2023-04-16T18:43:07.591Z,101674.63
2023-04-16T18:45:36.247Z,101674.69
2023-04-16T18:48:04.318Z,101687.56
2023-04-16T18:50:32.631Z,101683.50
2023-04-16T18:53:00.504Z,101688.63
2023-04-16T18:55:28.624Z,101686.44
2023-04-16T18:57:57.637Z,101691.56
2023-04-16T19:00:26.772Z,101691.09
2023-04-16T19:02:55.778Z,101701.75
2023-04-16T19:05:23.635Z,101698.56
2023-04-16T19:07:51.229Z,101703.47
2023-04-16T19:10:19.036Z,101708.53
2023-04-16T19:12:49.315Z,101706.63
2023-04-16T19:15:17.028Z,101706.69
2023-04-16T19:17:46.715Z,101716.84
2023-04-16T19:20:15.264Z,101721.09
2023-04-16T19:22:43.238Z,101711.13
2023-04-16T19:25:11.282Z,101713.97
2023-04-16T19:27:38.902Z,101713.16
2023-04-16T19:30:10.520Z,101715.03
2023-04-16T19:32:38.528Z,101711.44
2023-04-16T19:35:08.306Z,101723.16
2023-04-16T19:37:36.291Z,101723.47
2023-04-16T19:40:05.980Z,101724.34
2023-04-16T19:42:34.078Z,101721.63
2023-04-16T19:45:03.060Z,101725.34
2023-04-16T19:47:30.936Z,101721.97
2023-04-16T19:49:58.806Z,101735.03
2023-04-16T19:52:30.557Z,101724.34
2023-04-16T19:54:58.325Z,101728.56
2023-04-16T19:57:26.068Z,101732.97
2023-04-16T19:59:55.104Z,101730.25
2023-04-16T20:02:23.239Z,101729.22
2023-04-16T20:04:53.077Z,101732.94
2023-04-16T20:07:20.819Z,101732.44
2023-04-16T20:09:50.879Z,101731.94
2023-04-16T20:12:18.548Z,101740.59
2023-04-16T20:14:50.797Z,101741.97
2023-04-16T20:17:20.974Z,101741.28
2023-04-16T20:19:49.608Z,101730.28
2023-04-16T20:22:18.610Z,101737.22
2023-04-16T20:24:50.644Z,101738.25
2023-04-16T20:27:20.871Z,101737.41
2023-04-16T20:29:49.164Z,101741.81
2023-04-16T20:32:17.934Z,101739.09
2023-04-16T20:34:46.026Z,101737.25
2023-04-16T20:37:13.929Z,101748.09
2023-04-16T20:39:44.524Z,101738.28
2023-04-16T20:42:12.796Z,101745.06
2023-04-16T20:44:41.769Z,101738.63
2023-04-16T20:47:10.072Z,101743.00
2023-04-16T20:49:38.395Z,101738.63
2023-04-16T20:52:07.312Z,101738.63
2023-04-16T20:54:35.151Z,101739.81
2023-04-16T20:57:04.731Z,101734.88
2023-04-16T20:59:32.704Z,101735.75
2023-04-16T21:02:01.794Z,101742.50
2023-04-16T21:04:29.775Z,101734.69
2023-04-16T21:06:57.533Z,101740.97
2023-04-16T21:09:25.294Z,101739.28
2023-04-16T21:11:52.979Z,101737.09
2023-04-16T21:14:20.790Z,101747.94
2023-04-16T21:16:48.444Z,101742.66
2023-04-16T21:19:17.461Z,101752.84
2023-04-16T21:21:45.383Z,101748.09
2023-04-16T21:24:13.027Z,101748.44
2023-04-16T21:26:40.817Z,101748.44
2023-04-16T21:29:08.511Z,101746.75
2023-04-16T21:31:36.565Z,101749.44
2023-04-16T21:34:04.251Z,101755.22
2023-04-16T21:36:34.003Z,101756.22
2023-04-16T21:39:02.099Z,101749.66
2023-04-16T21:41:29.723Z,101755.06
2023-04-16T21:43:57.478Z,101752.19
2023-04-16T21:46:26.296Z,101752.34
2023-04-16T21:48:54.014Z,101752.34
2023-04-16T21:51:28.881Z,101755.25
2023-04-16T21:53:58.352Z,101755.25
2023-04-16T21:56:26.371Z,101752.84
2023-04-16T21:58:54.073Z,101759.13
2023-04-16T22:01:22.045Z,101758.25
2023-04-16T22:03:51.790Z,101756.59
2023-04-16T22:06:20.332Z,101763.03
2023-04-16T22:08:49.650Z,101754.22
2023-04-16T22:11:18.621Z,101757.28
2023-04-16T22:13:47.816Z,101762.69
2023-04-16T22:16:15.708Z,101774.84
2023-04-16T22:18:43.510Z,101763.31
2023-04-16T22:21:11.388Z,101769.59
2023-04-16T22:23:39.015Z,101761.47
2023-04-16T22:26:06.921Z,101773.31
2023-04-16T22:28:35.985Z,101773.47
2023-04-16T22:31:03.782Z,101774.50
2023-04-16T22:33:31.621Z,101771.09
2023-04-16T22:36:00.405Z,101776.19
2023-04-16T22:38:28.086Z,101775.31
2023-04-16T22:40:55.868Z,101770.25
2023-04-16T22:43:23.862Z,101773.16
2023-04-16T22:46:04.802Z,101768.41
2023-04-16T22:48:33.836Z,101768.03
2023-04-16T22:51:01.704Z,101774.31
2023-04-16T22:53:29.608Z,101773.47
2023-04-16T22:55:57.337Z,101775.16
2023-04-16T22:58:25.436Z,101767.38
2023-04-16T23:00:56.737Z,101769.75
2023-04-16T23:03:24.801Z,101769.75
2023-04-16T23:05:52.691Z,101762.81
2023-04-16T23:08:21.529Z,101762.28
2023-04-16T23:10:49.693Z,101760.28
2023-04-16T23:13:17.370Z,101772.47
2023-04-16T23:15:47.152Z,101767.38
2023-04-16T23:18:16.259Z,101774.63
2023-04-16T23:20:43.856Z,101772.28
2023-04-16T23:23:11.469Z,101772.47
2023-04-16T23:25:41.728Z,101779.38
2023-04-16T23:28:09.357Z,101767.22
2023-04-16T23:30:37.176Z,101776.16
2023-04-16T23:33:05.042Z,101771.94
2023-04-16T23:35:34.054Z,101775.16
2023-04-16T23:38:01.706Z,101777.16
2023-04-16T23:40:29.371Z,101778.88
2023-04-16T23:42:57.103Z,101776.50
2023-04-16T23:45:24.897Z,101770.41
2023-04-16T23:47:52.574Z,101777.88
2023-04-16T23:50:21.730Z,101764.66
2023-04-16T23:52:50.935Z,101776.16
2023-04-16T23:55:18.534Z,101770.22
2023-04-16T23:57:46.245Z,101768.88
